createdAt,value
2022-12-05T00:00:41.735Z,31.65
2022-12-05T00:03:11.683Z,26.58
2022-12-05T00:05:41.967Z,30.33
2022-12-05T00:08:11.281Z,31.33
2022-12-05T00:10:40.985Z,29.25
2022-12-05T00:13:10.887Z,25.58
2022-12-05T00:15:42.354Z,25.67
2022-12-05T00:18:11.774Z,25.02
2022-12-05T00:20:46.897Z,24.65
2022-12-05T00:23:16.397Z,25.15
2022-12-05T00:25:45.462Z,24.58
2022-12-05T00:28:14.725Z,23.02
2022-12-05T00:30:45.123Z,21.75
2022-12-05T00:33:14.507Z,23.15
2022-12-05T00:35:43.560Z,22.70
2022-12-05T00:38:12.837Z,22.87
2022-12-05T00:40:41.832Z,21.63
2022-12-05T00:43:11.147Z,26.05
2022-12-05T00:45:40.282Z,24.88
2022-12-05T00:48:11.035Z,23.57
2022-12-05T00:53:09.062Z,26.05
2022-12-05T00:55:38.962Z,27.02
2022-12-05T00:58:08.285Z,24.08
2022-12-05T01:00:37.271Z,25.60
2022-12-05T01:03:06.678Z,29.10
2022-12-05T01:05:37.330Z,29.60
2022-12-05T01:08:06.890Z,33.33
2022-12-05T01:10:35.931Z,33.15
2022-12-05T01:13:05.250Z,29.40
2022-12-05T01:15:38.824Z,27.48
2022-12-05T01:18:08.141Z,26.52
2022-12-05T01:20:40.961Z,31.77
2022-12-05T01:23:11.097Z,29.27
2022-12-05T01:25:42.171Z,34.55
2022-12-05T01:28:12.004Z,27.15
2022-12-05T01:30:41.694Z,28.33
2022-12-05T01:33:11.319Z,29.52
2022-12-05T01:35:42.687Z,27.05
2022-12-05T01:38:13.426Z,27.60
2022-12-05T01:43:17.457Z,27.83
2022-12-05T01:45:47.835Z,26.50
2022-12-05T01:48:21.152Z,27.77
2022-12-05T01:50:52.464Z,25.65
2022-12-05T01:53:22.847Z,30.52
2022-12-05T01:55:54.180Z,26.38
2022-12-05T01:58:25.546Z,27.63
2022-12-05T02:00:54.829Z,27.45
2022-12-05T02:03:24.411Z,29.25
2022-12-05T02:05:57.819Z,28.88
2022-12-05T02:08:29.926Z,24.60
2022-12-05T02:10:59.689Z,26.38
2022-12-05T02:13:41.335Z,28.13
2022-12-05T02:16:19.824Z,28.60
2022-12-05T02:19:02.512Z,27.67
2022-12-05T02:22:09.929Z,29.92
2022-12-05T02:25:08.957Z,26.92
2022-12-05T02:28:08.333Z,26.73
2022-12-05T02:30:43.137Z,31.98
2022-12-05T02:33:22.227Z,28.42
2022-12-05T02:35:59.432Z,27.85
2022-12-05T02:38:32.288Z,29.60
2022-12-05T02:41:12.017Z,30.58
2022-12-05T02:43:45.946Z,27.57
2022-12-05T02:46:21.533Z,25.35
2022-12-05T02:48:55.349Z,26.65
2022-12-05T02:51:26.943Z,24.35
2022-12-05T02:53:58.748Z,28.23
2022-12-05T02:56:30.888Z,23.30
2022-12-05T02:59:00.043Z,21.25
2022-12-05T03:01:34.108Z,23.45
2022-12-05T03:04:05.656Z,28.48
2022-12-05T03:06:38.893Z,22.73
2022-12-05T03:09:11.105Z,23.45
2022-12-05T03:11:46.025Z,24.02
2022-12-05T03:14:21.689Z,23.88
2022-12-05T03:16:55.059Z,20.90
2022-12-05T03:19:28.321Z,22.27
2022-12-05T03:22:04.245Z,27.58
2022-12-05T03:24:35.501Z,21.27
2022-12-05T03:27:13.663Z,23.42
2022-12-05T03:29:50.014Z,25.67
2022-12-05T03:32:26.230Z,25.75
2022-12-05T03:35:04.980Z,24.08
2022-12-05T03:37:42.958Z,26.00
2022-12-05T03:40:22.351Z,27.77
2022-12-05T03:42:58.803Z,23.17
2022-12-05T03:45:35.648Z,33.22
2022-12-05T03:48:14.265Z,28.30
2022-12-05T03:50:47.657Z,28.25
2022-12-05T03:53:21.536Z,26.05
2022-12-05T03:55:58.990Z,30.42
2022-12-05T03:58:32.566Z,27.52
2022-12-05T04:01:05.680Z,29.38
2022-12-05T04:03:41.631Z,29.42
2022-12-05T04:06:18.652Z,26.17
2022-12-05T04:08:53.282Z,29.90
2022-12-05T04:11:26.781Z,26.60
2022-12-05T04:13:59.411Z,25.80
2022-12-05T04:16:50.211Z,30.77
2022-12-05T04:19:26.670Z,29.33
2022-12-05T04:21:56.988Z,30.65
2022-12-05T04:24:48.512Z,29.27
2022-12-05T04:27:29.873Z,30.70
2022-12-05T04:30:04.661Z,29.08
2022-12-05T04:32:41.862Z,28.33
2022-12-05T04:35:19.544Z,32.50
2022-12-05T04:37:53.766Z,25.65
2022-12-05T04:40:29.597Z,25.27
2022-12-05T04:43:00.411Z,24.42
2022-12-05T04:45:30.953Z,29.95
2022-12-05T04:48:04.323Z,27.30
2022-12-05T04:50:38.346Z,25.75
2022-12-05T04:53:10.235Z,26.05
2022-12-05T04:55:44.554Z,26.13
2022-12-05T04:58:16.274Z,26.90
2022-12-05T05:00:51.822Z,27.60
2022-12-05T05:03:26.107Z,28.10
2022-12-05T05:05:58.046Z,27.55
2022-12-05T05:08:29.235Z,31.52
2022-12-05T05:11:10.367Z,27.58
2022-12-05T05:13:39.514Z,30.17
2022-12-05T05:16:13.992Z,29.93
2022-12-05T05:18:43.024Z,29.90
2022-12-05T05:21:20.208Z,31.35
2022-12-05T05:23:49.231Z,29.52
2022-12-05T05:26:18.835Z,27.73
2022-12-05T05:28:48.677Z,28.45
2022-12-05T05:31:19.424Z,31.80
2022-12-05T05:33:51.239Z,28.95
2022-12-05T05:36:23.991Z,27.73
2022-12-05T05:38:54.391Z,29.10
2022-12-05T05:41:25.525Z,28.92
2022-12-05T05:43:55.587Z,26.60
2022-12-05T05:48:55.591Z,26.65
2022-12-05T05:51:29.289Z,25.50
2022-12-05T05:53:59.165Z,30.65
2022-12-05T05:56:29.511Z,26.67
2022-12-05T05:58:59.870Z,23.75
2022-12-05T06:01:30.131Z,27.25
2022-12-05T06:03:59.899Z,25.63
2022-12-05T06:06:30.740Z,29.13
2022-12-05T06:08:59.749Z,27.85
2022-12-05T06:11:29.796Z,25.83
2022-12-05T06:14:01.071Z,24.10
2022-12-05T06:16:31.692Z,25.88
2022-12-05T06:19:01.070Z,23.23
2022-12-05T06:21:31.884Z,21.02
2022-12-05T06:24:00.896Z,24.67
2022-12-05T06:26:30.210Z,24.02
2022-12-05T06:28:59.232Z,22.25
2022-12-05T06:31:31.650Z,23.55
2022-12-05T06:34:03.057Z,26.73
2022-12-05T06:36:33.988Z,26.95
2022-12-05T06:39:03.082Z,27.27
2022-12-05T06:41:33.662Z,28.98
2022-12-05T06:44:02.902Z,29.40
2022-12-05T06:46:32.815Z,27.10
2022-12-05T06:49:02.024Z,24.70
2022-12-05T06:51:32.681Z,22.92
2022-12-05T06:56:30.696Z,20.67
2022-12-05T06:58:59.733Z,20.83
2022-12-05T07:01:42.504Z,21.25
2022-12-05T07:04:15.613Z,22.90
2022-12-05T07:06:51.154Z,23.58
2022-12-05T07:09:21.579Z,23.83
2022-12-05T07:11:52.106Z,25.17
2022-12-05T07:17:10.988Z,23.75
2022-12-05T07:19:39.997Z,22.50
2022-12-05T07:22:15.752Z,22.30
2022-12-05T07:24:45.611Z,19.27
2022-12-05T07:27:15.629Z,25.40
2022-12-05T07:29:44.750Z,22.98
2022-12-05T07:32:14.203Z,23.27
2022-12-05T07:34:43.371Z,23.88
2022-12-05T07:37:14.119Z,25.70
2022-12-05T07:39:43.077Z,24.42
2022-12-05T07:42:12.392Z,25.17
2022-12-05T07:44:41.374Z,24.85
2022-12-05T07:47:10.723Z,22.55
2022-12-05T07:49:39.792Z,23.55
2022-12-05T07:52:09.903Z,21.23
2022-12-05T07:54:40.259Z,25.00
2022-12-05T07:57:09.633Z,21.50
2022-12-05T07:59:38.610Z,20.75
2022-12-05T08:02:09.692Z,21.52
2022-12-05T08:04:38.887Z,21.48
2022-12-05T08:07:10.802Z,20.07
2022-12-05T08:09:41.222Z,23.20
2022-12-05T08:12:10.565Z,23.15
2022-12-05T08:14:39.658Z,25.23
2022-12-05T08:17:08.979Z,23.97
2022-12-05T08:19:38.268Z,24.80
2022-12-05T08:22:07.699Z,27.13
2022-12-05T08:24:37.002Z,23.90
2022-12-05T08:27:08.022Z,23.75
2022-12-05T08:29:37.111Z,22.00
2022-12-05T08:32:06.745Z,23.77
2022-12-05T08:34:35.779Z,23.38
2022-12-05T08:37:05.084Z,25.60
2022-12-05T08:39:38.436Z,26.92
2022-12-05T08:42:09.714Z,26.83
2022-12-05T08:44:38.743Z,27.10
2022-12-05T08:47:08.028Z,29.02
2022-12-05T08:49:37.126Z,29.02
2022-12-05T08:52:06.570Z,22.30
2022-12-05T08:54:35.770Z,23.15
2022-12-05T08:57:05.499Z,31.30
2022-12-05T08:59:35.896Z,26.88
2022-12-05T09:02:05.279Z,27.83
2022-12-05T09:04:34.665Z,29.50
2022-12-05T09:07:04.389Z,29.10
2022-12-05T09:09:33.681Z,28.20
2022-12-05T09:12:03.048Z,33.55
2022-12-05T09:14:33.097Z,27.08
2022-12-05T09:19:33.356Z,26.48
2022-12-05T09:22:05.834Z,28.00
2022-12-05T09:24:34.980Z,29.65
2022-12-05T09:27:04.719Z,31.48
2022-12-05T09:29:33.715Z,28.75
2022-12-05T09:32:04.498Z,31.88
2022-12-05T09:34:33.572Z,32.67
2022-12-05T09:37:23.211Z,33.50
2022-12-05T09:39:51.803Z,36.28
2022-12-05T09:42:39.359Z,33.15
2022-12-05T09:45:19.635Z,27.60
2022-12-05T09:47:56.372Z,25.15
2022-12-05T09:50:28.429Z,29.33
2022-12-05T09:53:05.123Z,29.58
2022-12-05T09:55:43.277Z,29.50
2022-12-05T09:58:26.265Z,28.23
2022-12-05T10:01:04.580Z,29.90
2022-12-05T10:03:43.892Z,27.05
2022-12-05T10:06:20.391Z,26.90
2022-12-05T10:09:06.510Z,27.95
2022-12-05T10:11:43.080Z,25.25
2022-12-05T10:14:21.223Z,25.05
2022-12-05T10:16:54.938Z,24.73
2022-12-05T10:19:29.941Z,25.73
2022-12-05T10:22:04.419Z,27.70
2022-12-05T10:24:39.009Z,23.95
2022-12-05T10:27:11.852Z,28.48
2022-12-05T10:29:50.406Z,32.75
2022-12-05T10:32:23.535Z,27.20
2022-12-05T10:35:01.210Z,30.45
2022-12-05T10:37:31.131Z,29.52
2022-12-05T10:40:00.471Z,30.98
2022-12-05T10:42:34.738Z,26.58
2022-12-05T10:45:06.128Z,26.08
2022-12-05T10:47:36.720Z,28.45
2022-12-05T10:50:15.338Z,28.40
2022-12-05T10:52:44.885Z,28.48
2022-12-05T10:55:18.764Z,26.50
2022-12-05T10:57:52.983Z,27.73
2022-12-05T11:00:25.340Z,26.23
2022-12-05T11:02:55.135Z,26.52
2022-12-05T11:05:35.911Z,28.30
2022-12-05T11:08:05.184Z,30.42
2022-12-05T11:10:37.797Z,30.60
2022-12-05T11:13:17.658Z,24.92
2022-12-05T11:15:53.718Z,35.50
2022-12-05T11:18:31.652Z,32.40
2022-12-05T11:21:13.204Z,27.85
2022-12-05T11:23:42.337Z,28.23
2022-12-05T11:26:20.698Z,31.30
2022-12-05T11:28:49.697Z,28.17
2022-12-05T11:31:29.406Z,32.72
2022-12-05T11:34:13.415Z,26.27
2022-12-05T11:36:49.463Z,30.23
2022-12-05T11:39:18.675Z,30.17
2022-12-05T11:42:01.668Z,29.02
2022-12-05T11:44:46.556Z,27.98
2022-12-05T11:47:27.515Z,27.50
2022-12-05T11:50:23.715Z,28.35
2022-12-05T11:53:05.841Z,34.88
2022-12-05T11:55:41.999Z,27.13
2022-12-05T11:58:36.456Z,28.13
2022-12-05T12:01:18.383Z,31.95
2022-12-05T12:04:20.288Z,31.52
2022-12-05T12:07:00.786Z,27.05
2022-12-05T12:09:46.861Z,27.75
2022-12-05T12:12:26.675Z,29.45
2022-12-05T12:15:07.217Z,34.42
2022-12-05T12:17:47.341Z,30.38
2022-12-05T12:20:34.988Z,32.45
2022-12-05T12:23:21.555Z,29.88
2022-12-05T12:26:06.339Z,30.75
2022-12-05T12:28:43.181Z,32.80
2022-12-05T12:31:36.626Z,33.85
2022-12-05T12:34:20.379Z,36.03
2022-12-05T12:36:56.890Z,36.38
2022-12-05T12:39:40.447Z,35.72
2022-12-05T12:42:21.453Z,33.97
2022-12-05T12:45:28.497Z,30.73
2022-12-05T12:48:14.105Z,28.70
2022-12-05T12:50:46.177Z,35.42
2022-12-05T12:53:45.711Z,30.70
2022-12-05T12:56:29.997Z,37.20
2022-12-05T12:59:15.019Z,30.63
2022-12-05T13:01:49.142Z,36.47
2022-12-05T13:04:23.902Z,30.98
2022-12-05T13:06:57.860Z,32.22
2022-12-05T13:09:32.324Z,33.85
2022-12-05T13:12:07.529Z,29.02
2022-12-05T13:14:40.535Z,35.17
2022-12-05T13:17:16.556Z,29.35
2022-12-05T13:19:49.233Z,35.13
2022-12-05T13:22:20.790Z,31.27
2022-12-05T13:24:52.514Z,31.50
2022-12-05T13:27:24.132Z,33.03
2022-12-05T13:29:57.450Z,32.03
2022-12-05T13:32:33.235Z,32.08
2022-12-05T13:35:10.903Z,33.25
2022-12-05T13:38:05.759Z,32.97
2022-12-05T13:40:55.910Z,28.73
2022-12-05T13:43:28.949Z,30.90
2022-12-05T13:46:08.376Z,27.88
2022-12-05T13:48:41.905Z,30.33
2022-12-05T13:51:22.287Z,31.40
2022-12-05T13:54:00.748Z,33.25
2022-12-05T13:56:49.333Z,35.47
2022-12-05T13:59:51.732Z,41.72
2022-12-05T14:02:53.341Z,30.33
2022-12-05T14:05:44.109Z,35.38
2022-12-05T14:08:46.688Z,36.97
2022-12-05T14:11:15.899Z,35.30
2022-12-05T14:13:46.702Z,36.67
2022-12-05T14:16:53.383Z,33.38
2022-12-05T14:20:00.682Z,38.00
2022-12-05T14:23:16.230Z,37.65
2022-12-05T14:26:08.825Z,33.45
2022-12-05T14:28:52.666Z,36.67
2022-12-05T14:31:45.249Z,34.47
2022-12-05T14:34:25.293Z,38.80
2022-12-05T14:39:38.462Z,34.90
2022-12-05T14:42:24.051Z,32.67
2022-12-05T14:44:55.721Z,35.55
2022-12-05T14:47:27.655Z,34.25
2022-12-05T14:50:02.178Z,33.55
2022-12-05T14:52:34.497Z,40.22
2022-12-05T14:55:12.084Z,45.25
2022-12-05T14:57:49.644Z,39.95
2022-12-05T15:00:23.929Z,36.60
2022-12-05T15:02:56.485Z,36.15
2022-12-05T15:05:31.519Z,40.35
2022-12-05T15:08:04.638Z,34.75
2022-12-05T15:10:36.171Z,43.15
2022-12-05T15:13:11.430Z,35.97
2022-12-05T15:15:44.227Z,40.33
2022-12-05T15:18:21.945Z,42.33
2022-12-05T15:20:55.743Z,37.33
2022-12-05T15:23:47.446Z,36.67
2022-12-05T15:26:46.261Z,34.25
2022-12-05T15:29:15.652Z,36.58
2022-12-05T15:31:48.221Z,34.40
2022-12-05T15:34:22.325Z,34.35
2022-12-05T15:37:04.792Z,35.42
2022-12-05T15:39:53.803Z,41.63
2022-12-05T15:42:29.323Z,35.50
2022-12-05T15:45:23.643Z,37.35
2022-12-05T15:47:56.816Z,36.80
2022-12-05T15:50:34.949Z,39.85
2022-12-05T15:53:11.645Z,37.38
2022-12-05T15:55:47.987Z,40.60
2022-12-05T15:58:23.980Z,40.40
2022-12-05T16:00:57.441Z,35.55
2022-12-05T16:03:34.591Z,46.60
2022-12-05T16:06:11.585Z,39.28
2022-12-05T16:08:46.258Z,35.08
2022-12-05T16:11:17.657Z,35.65
2022-12-05T16:13:49.232Z,37.80
2022-12-05T16:16:21.177Z,34.10
2022-12-05T16:18:54.614Z,35.80
2022-12-05T17:47:46.619Z,40.90
2022-12-05T17:50:17.787Z,43.10
2022-12-05T17:52:47.354Z,34.90
2022-12-05T17:55:19.230Z,37.45
2022-12-05T17:57:48.840Z,40.03
2022-12-05T18:00:19.604Z,41.03
2022-12-05T18:02:51.197Z,37.10
2022-12-05T18:05:20.720Z,44.67
2022-12-05T18:07:51.226Z,40.25
2022-12-05T18:12:54.919Z,40.63
2022-12-05T18:15:24.160Z,43.33
2022-12-05T18:17:55.579Z,45.60
2022-12-05T18:20:24.611Z,41.20
2022-12-05T18:22:54.922Z,43.33
2022-12-05T18:25:25.037Z,46.47
2022-12-05T18:27:54.327Z,49.50
2022-12-05T18:30:23.434Z,51.85
2022-12-05T18:32:54.218Z,39.63
2022-12-05T18:38:11.159Z,45.70
2022-12-05T18:40:40.302Z,49.83
2022-12-05T18:43:09.703Z,47.20
2022-12-05T18:45:38.844Z,45.60
2022-12-05T18:48:31.466Z,45.47
2022-12-05T18:53:36.773Z,52.03
2022-12-05T18:56:24.144Z,51.92
2022-12-05T18:58:59.375Z,45.33
2022-12-05T19:01:29.600Z,44.25
2022-12-05T19:04:02.376Z,55.88
2022-12-05T19:06:33.977Z,47.80
2022-12-05T19:09:05.466Z,51.70
2022-12-05T19:11:35.127Z,42.92
2022-12-05T19:14:05.927Z,48.42
2022-12-05T19:16:36.184Z,50.70
2022-12-05T19:19:09.005Z,53.95
2022-12-05T19:21:38.642Z,49.67
2022-12-05T19:24:09.521Z,47.55
2022-12-05T19:26:38.566Z,44.15
2022-12-05T19:29:08.000Z,45.53
2022-12-05T19:31:37.084Z,45.63
2022-12-05T19:34:09.422Z,44.70
2022-12-05T19:36:40.763Z,48.15
2022-12-05T19:39:12.833Z,43.90
2022-12-05T19:41:42.461Z,49.78
2022-12-05T19:44:11.775Z,49.38
2022-12-05T19:46:41.003Z,50.08
2022-12-05T19:49:13.775Z,50.45
2022-12-05T19:51:43.676Z,49.33
2022-12-05T19:54:17.681Z,46.70
2022-12-05T19:56:46.798Z,46.97
2022-12-05T19:59:17.268Z,46.28
2022-12-05T20:01:46.581Z,42.35
2022-12-05T20:04:18.244Z,46.97
2022-12-05T20:06:49.421Z,47.00
2022-12-05T20:09:21.367Z,47.25
2022-12-05T20:11:54.995Z,45.75
2022-12-05T20:14:26.206Z,51.05
2022-12-05T20:16:55.718Z,47.88
2022-12-05T20:19:26.600Z,45.95
2022-12-05T20:21:56.059Z,46.33
2022-12-05T20:24:25.355Z,49.67
2022-12-05T20:26:54.919Z,44.25
2022-12-05T20:29:24.255Z,44.72
2022-12-05T20:31:56.904Z,42.40
2022-12-05T20:34:27.886Z,44.97
2022-12-05T20:36:57.464Z,43.70
2022-12-05T20:39:30.082Z,46.20
2022-12-05T20:41:59.495Z,46.85
2022-12-05T20:44:29.064Z,44.22
2022-12-05T20:46:58.055Z,47.60
2022-12-05T20:49:28.739Z,43.35
2022-12-05T20:54:26.982Z,43.50
2022-12-05T20:56:56.574Z,42.70
2022-12-05T20:59:51.623Z,45.83
2022-12-05T21:02:20.807Z,50.40
2022-12-05T21:04:51.566Z,51.08
2022-12-05T21:09:49.825Z,55.60
2022-12-05T21:12:18.800Z,63.00
2022-12-05T21:14:48.110Z,61.88
2022-12-05T21:17:17.125Z,60.25
2022-12-05T21:19:46.566Z,60.25
2022-12-05T21:22:17.257Z,69.88
2022-12-05T21:24:46.580Z,63.47
2022-12-05T21:27:15.743Z,65.97
2022-12-05T21:29:45.038Z,66.13
2022-12-05T21:32:14.194Z,66.63
2022-12-05T21:34:43.599Z,63.80
2022-12-05T21:37:12.631Z,66.55
2022-12-05T21:39:43.355Z,70.00
2022-12-05T21:42:12.562Z,70.15
2022-12-05T21:44:41.874Z,70.22
2022-12-05T21:47:10.860Z,69.47
2022-12-05T21:49:40.180Z,73.47
2022-12-05T21:52:09.272Z,66.97
2022-12-05T21:54:38.534Z,65.13
2022-12-05T21:57:08.937Z,66.90
2022-12-05T21:59:38.306Z,63.67
2022-12-05T22:02:07.303Z,67.35
2022-12-05T22:04:36.666Z,58.15
2022-12-05T22:07:05.689Z,56.92
2022-12-05T22:09:34.959Z,58.60
2022-12-05T22:12:04.078Z,58.22
2022-12-05T22:14:34.874Z,57.03
2022-12-05T22:17:03.891Z,61.25
2022-12-05T22:19:33.204Z,54.10
2022-12-05T22:22:02.289Z,59.70
2022-12-05T22:24:31.624Z,61.33
2022-12-05T22:27:00.674Z,57.80
2022-12-05T22:29:30.009Z,52.75
2022-12-05T22:32:00.348Z,54.95
2022-12-05T22:34:29.694Z,55.00
2022-12-05T22:36:58.731Z,55.33
2022-12-05T22:39:28.003Z,52.47
2022-12-05T22:41:58.399Z,53.38
2022-12-05T22:44:27.895Z,52.17
2022-12-05T22:46:56.961Z,60.85
2022-12-05T22:49:27.726Z,56.93
2022-12-05T22:51:56.878Z,51.45
2022-12-05T22:54:30.203Z,55.67
2022-12-05T22:56:59.466Z,51.33
2022-12-05T22:59:28.833Z,57.83
2022-12-05T23:01:57.852Z,50.42
2022-12-05T23:04:28.667Z,54.97
2022-12-05T23:06:57.681Z,53.78
2022-12-05T23:09:27.246Z,64.25
2022-12-05T23:11:56.270Z,58.22
2022-12-05T23:14:25.701Z,50.38
2022-12-05T23:16:54.772Z,48.95
2022-12-05T23:19:24.403Z,55.65
2022-12-05T23:21:55.023Z,75.27
2022-12-05T23:24:24.345Z,55.30
2022-12-05T23:26:53.299Z,57.03
2022-12-05T23:29:22.635Z,52.60
2022-12-05T23:31:51.828Z,58.72
2022-12-05T23:34:21.219Z,52.72
2022-12-05T23:36:50.367Z,52.83
2022-12-05T23:39:21.236Z,53.57
2022-12-05T23:41:50.923Z,63.42
2022-12-05T23:44:20.293Z,54.60
2022-12-05T23:46:49.499Z,52.22
2022-12-05T23:49:18.921Z,58.72
2022-12-05T23:51:49.816Z,61.50
2022-12-05T23:54:20.530Z,54.10
2022-12-05T23:59:18.635Z,63.28
